KDTN/DTN METAR and TAF weather

Enter ICAO airport designator
Station Type Date Time Source
KDTN METAR 2021/07/28 18:53 UTC NOAA

KDTN 281853Z 36004KT 10SM BKN038 BKN050 34/25 A3002 RMK AO2 LTG DSNT E SLP163 T03390250


Station Type Date Time Source
KDTN Decoded METAR 2021/07/28 18:53 UTC NOAA

SHREVEPORT DOWNTOWN AIRPORT, LA, United States (KDTN) 32-32N 093-45W 53M
Jul 28, 2021 - 02:53 PM EDT / 2021.07.28 1853 UTC
Wind: from the N (360 degrees) at 5 MPH (4 KT):0
Visibility: 10 mile(s):0
Sky conditions: mostly cloudy
Weather: Lightning observed
Temperature: 93.0 F (33.9 C)
Heat index: 106.7 F (41.5 C):1
Dew Point: 77.0 F (25.0 C)
Relative Humidity: 59%
Pressure (altimeter): 30.02 in. Hg (1016 hPa)
ob: KDTN 281853Z 36004KT 10SM BKN038 BKN050 34/25 A3002 RMK AO2 LTG DSNT E SLP163 T03390250
cycle: 19

Station Type Date Time Source
KDTN TAF UTC NOAA

Error!

Example: see airport list